Time;durP1;ratioP1;P1;durP2;ratioP2;P2;SDS_P1;SDS_P2;PMS_P1;PMS_P2;Temp;Humidity;BMP_temperature;BMP_pressure;BME280_temperature;BME280_humidity;BME280_pressure;Samples;Min_cycle;Max_cycle;Signal;HPM_P1;HPM_P2
2024/01/11 00:01:48;;;;;;;12.35;9.40;;;;;;;;;;5080596;28;20036;-71
2024/01/11 00:04:14;;;;;;;14.27;9.50;;;;;;;;;;5063663;28;21471;-72
2024/01/11 00:06:42;;;;;;;13.27;8.98;;;;;;;;;;5053924;28;20048;-71
2024/01/11 00:09:08;;;;;;;15.45;10.23;;;;;;;;;;5085886;28;20453;-72
2024/01/11 00:11:34;;;;;;;16.95;10.48;;;;;;;;;;5057967;28;20051;-72
2024/01/11 00:14:00;;;;;;;15.95;11.32;;;;;;;;;;5080530;28;20052;-72
2024/01/11 00:16:26;;;;;;;16.02;10.30;;;;;;;;;;5074417;28;20040;-72
2024/01/11 00:18:53;;;;;;;15.57;10.98;;;;;;;;;;5061790;28;20040;-71
2024/01/11 00:21:19;;;;;;;16.13;11.18;;;;;;;;;;5060190;28;20045;-72
2024/01/11 00:23:45;;;;;;;15.48;10.43;;;;;;;;;;5066508;28;20054;-72
2024/01/11 00:26:14;;;;;;;15.00;10.75;;;;;;;;;;5071012;28;20071;-72
2024/01/11 00:28:40;;;;;;;18.38;10.90;;;;;;;;;;5094128;28;20047;-71
2024/01/11 00:31:06;;;;;;;16.15;10.82;;;;;;;;;;5092109;28;20090;-71
2024/01/11 00:33:32;;;;;;;16.25;11.23;;;;;;;;;;5091625;28;20036;-72
2024/01/11 00:35:59;;;;;;;15.27;10.30;;;;;;;;;;5092979;28;20036;-71
2024/01/11 00:38:25;;;;;;;19.80;10.23;;;;;;;;;;5074895;28;20036;-71
2024/01/11 00:40:51;;;;;;;15.93;11.13;;;;;;;;;;5072602;28;20118;-71
2024/01/11 00:43:17;;;;;;;15.60;11.30;;;;;;;;;;5088909;28;20047;-71
2024/01/11 00:45:44;;;;;;;17.65;11.55;;;;;;;;;;5088824;28;20032;-71
2024/01/11 00:48:10;;;;;;;16.70;10.63;;;;;;;;;;5071848;28;20047;-71
2024/01/11 00:50:36;;;;;;;18.73;11.23;;;;;;;;;;5059540;28;20040;-72
2024/01/11 00:53:02;;;;;;;17.40;11.23;;;;;;;;;;5057551;28;20492;-72
2024/01/11 00:55:29;;;;;;;13.50;9.98;;;;;;;;;;5073612;28;20044;-72
2024/01/11 00:57:55;;;;;;;17.35;11.15;;;;;;;;;;5056369;28;20044;-71
2024/01/11 01:00:21;;;;;;;19.27;12.05;;;;;;;;;;5074348;28;20052;-72
2024/01/11 01:02:47;;;;;;;19.73;11.50;;;;;;;;;;5088952;28;20048;-72
2024/01/11 01:05:13;;;;;;;16.60;11.38;;;;;;;;;;5079183;28;20039;-72
2024/01/11 01:07:39;;;;;;;15.98;10.38;;;;;;;;;;5054850;28;20044;-72
2024/01/11 01:10:05;;;;;;;18.13;12.02;;;;;;;;;;5080798;28;20039;-72
2024/01/11 01:12:31;;;;;;;16.52;10.68;;;;;;;;;;5071723;28;20497;-72
2024/01/11 01:14:58;;;;;;;18.92;12.32;;;;;;;;;;5073469;28;20123;-71
2024/01/11 01:17:24;;;;;;;17.80;11.48;;;;;;;;;;5073002;28;20048;-71
2024/01/11 01:19:50;;;;;;;18.10;12.10;;;;;;;;;;5085885;28;20028;-72
2024/01/11 01:22:16;;;;;;;17.45;12.48;;;;;;;;;;5078831;28;20477;-71
2024/01/11 01:24:42;;;;;;;22.13;13.13;;;;;;;;;;5055355;28;21145;-72
2024/01/11 01:27:08;;;;;;;18.80;12.40;;;;;;;;;;5079808;28;20043;-71
2024/01/11 01:29:34;;;;;;;19.33;12.23;;;;;;;;;;5089645;28;20040;-72
2024/01/11 01:32:00;;;;;;;20.05;13.20;;;;;;;;;;5087951;28;20036;-71
2024/01/11 01:34:26;;;;;;;17.88;12.70;;;;;;;;;;5082197;28;20032;-72
2024/01/11 01:36:52;;;;;;;18.90;12.20;;;;;;;;;;5091443;28;20040;-72
2024/01/11 01:39:18;;;;;;;19.02;12.05;;;;;;;;;;5081914;28;20032;-72
2024/01/11 01:41:44;;;;;;;21.25;13.18;;;;;;;;;;5067704;28;20040;-78
2024/01/11 01:44:10;;;;;;;20.23;13.05;;;;;;;;;;5065571;28;20086;-78
2024/01/11 01:46:36;;;;;;;20.00;12.38;;;;;;;;;;5072227;28;20039;-78
2024/01/11 01:49:02;;;;;;;19.38;13.15;;;;;;;;;;5095810;28;20046;-79
2024/01/11 01:51:30;;;;;;;17.98;12.82;;;;;;;;;;5072161;28;20036;-78
2024/01/11 01:53:57;;;;;;;16.92;12.52;;;;;;;;;;5072633;28;20067;-78
2024/01/11 01:56:23;;;;;;;18.92;11.70;;;;;;;;;;5091806;28;20115;-78
2024/01/11 01:58:51;;;;;;;19.17;12.20;;;;;;;;;;5073158;28;20069;-78
2024/01/11 02:01:19;;;;;;;17.65;12.55;;;;;;;;;;5061399;28;20065;-78
2024/01/11 02:03:46;;;;;;;19.60;13.18;;;;;;;;;;5065513;28;20471;-78
2024/01/11 02:06:13;;;;;;;21.38;13.23;;;;;;;;;;5079033;28;20036;-78
2024/01/11 02:08:40;;;;;;;18.25;12.55;;;;;;;;;;5089997;28;20036;-72
2024/01/11 02:11:06;;;;;;;19.73;13.10;;;;;;;;;;5075955;28;20161;-72
2024/01/11 02:13:32;;;;;;;21.35;13.32;;;;;;;;;;5046238;28;20125;-72
2024/01/11 02:15:59;;;;;;;19.25;13.25;;;;;;;;;;5087861;28;20128;-72
2024/01/11 02:18:25;;;;;;;16.92;11.73;;;;;;;;;;5092520;28;20040;-78
2024/01/11 02:20:51;;;;;;;19.08;11.48;;;;;;;;;;5089043;28;20040;-78
2024/01/11 02:23:22;;;;;;;19.88;12.13;;;;;;;;;;5060288;28;20535;-78
2024/01/11 02:25:48;;;;;;;19.85;12.30;;;;;;;;;;5092356;28;20101;-78
2024/01/11 02:28:14;;;;;;;19.02;11.93;;;;;;;;;;5060764;28;20127;-78
2024/01/11 02:30:40;;;;;;;18.25;12.98;;;;;;;;;;5074851;28;20059;-79
2024/01/11 02:33:06;;;;;;;15.98;11.75;;;;;;;;;;5078455;28;20039;-78
2024/01/11 02:35:33;;;;;;;18.02;12.18;;;;;;;;;;5066321;28;20090;-80
2024/01/11 02:38:00;;;;;;;18.65;12.25;;;;;;;;;;5067057;28;20029;-78
2024/01/11 02:40:26;;;;;;;19.15;13.00;;;;;;;;;;5072299;28;20059;-78
2024/01/11 02:42:52;;;;;;;19.42;12.75;;;;;;;;;;5097937;28;20028;-79
2024/01/11 02:45:18;;;;;;;19.90;12.88;;;;;;;;;;5095432;28;20044;-78
2024/01/11 02:47:45;;;;;;;16.85;12.02;;;;;;;;;;5089600;28;20039;-79
2024/01/11 02:50:14;;;;;;;17.63;11.82;;;;;;;;;;5089269;28;20037;-78
2024/01/11 02:52:40;;;;;;;19.65;12.02;;;;;;;;;;5082024;28;20063;-78
2024/01/11 02:55:06;;;;;;;18.58;12.27;;;;;;;;;;5064341;28;20033;-78
2024/01/11 02:57:32;;;;;;;19.95;12.68;;;;;;;;;;5067452;28;20036;-78
2024/01/11 02:59:58;;;;;;;16.88;11.02;;;;;;;;;;5082821;28;20053;-78
2024/01/11 03:02:24;;;;;;;19.05;12.95;;;;;;;;;;5075328;28;20032;-78
2024/01/11 03:04:50;;;;;;;16.92;11.35;;;;;;;;;;5083008;28;20033;-78
2024/01/11 03:07:16;;;;;;;18.90;12.20;;;;;;;;;;5041902;28;20115;-79
2024/01/11 03:09:42;;;;;;;18.10;12.65;;;;;;;;;;5083669;28;20066;-78
2024/01/11 03:12:09;;;;;;;20.58;12.90;;;;;;;;;;5067820;28;20036;-78
2024/01/11 03:14:35;;;;;;;18.52;12.07;;;;;;;;;;5074439;28;20547;-78
2024/01/11 03:17:01;;;;;;;18.45;12.38;;;;;;;;;;5089688;28;20036;-78
2024/01/11 03:19:27;;;;;;;21.80;13.57;;;;;;;;;;5067025;28;20437;-78
2024/01/11 03:21:53;;;;;;;17.33;12.88;;;;;;;;;;5086584;28;20119;-78
2024/01/11 03:24:19;;;;;;;18.65;11.85;;;;;;;;;;5067193;28;20046;-78
2024/01/11 03:26:45;;;;;;;19.50;12.75;;;;;;;;;;5062830;28;20047;-78
2024/01/11 03:29:12;;;;;;;18.83;12.20;;;;;;;;;;5085916;28;20123;-78
2024/01/11 03:31:41;;;;;;;20.35;11.98;;;;;;;;;;5076054;28;20040;-78
2024/01/11 03:34:07;;;;;;;19.58;12.82;;;;;;;;;;5081053;28;20036;-77
2024/01/11 03:36:33;;;;;;;18.73;12.07;;;;;;;;;;5072660;28;20036;-78
2024/01/11 03:38:59;;;;;;;21.50;13.18;;;;;;;;;;5062449;28;20041;-72
2024/01/11 03:41:25;;;;;;;17.75;12.20;;;;;;;;;;5073691;28;20036;-72
2024/01/11 03:43:51;;;;;;;19.70;12.02;;;;;;;;;;5076219;28;20063;-78
2024/01/11 03:46:17;;;;;;;16.48;11.50;;;;;;;;;;5076309;28;20044;-77
2024/01/11 03:48:43;;;;;;;18.33;11.88;;;;;;;;;;5080438;28;20048;-78
2024/01/11 03:51:10;;;;;;;19.40;12.45;;;;;;;;;;5065021;28;20036;-78
2024/01/11 03:53:37;;;;;;;18.13;12.45;;;;;;;;;;5083137;28;20055;-78
2024/01/11 03:56:03;;;;;;;20.08;13.30;;;;;;;;;;5072603;28;20090;-78
2024/01/11 03:58:30;;;;;;;17.80;12.35;;;;;;;;;;5073776;28;20037;-78
2024/01/11 04:00:56;;;;;;;18.48;12.57;;;;;;;;;;5084761;28;20062;-77
2024/01/11 04:03:22;;;;;;;19.67;11.65;;;;;;;;;;5056762;28;20036;-78
2024/01/11 04:05:48;;;;;;;17.45;11.88;;;;;;;;;;5067955;28;20044;-78
2024/01/11 04:08:14;;;;;;;19.60;12.02;;;;;;;;;;5081694;28;20040;-78
2024/01/11 04:10:40;;;;;;;19.65;12.90;;;;;;;;;;5056603;28;20051;-72
2024/01/11 04:13:07;;;;;;;20.13;13.07;;;;;;;;;;5081766;28;20044;-72
2024/01/11 04:15:33;;;;;;;18.65;12.52;;;;;;;;;;5081224;28;20097;-72
2024/01/11 04:17:59;;;;;;;20.58;12.55;;;;;;;;;;5083334;28;20033;-71
2024/01/11 04:20:25;;;;;;;18.52;11.70;;;;;;;;;;5091730;28;20044;-72
2024/01/11 04:22:52;;;;;;;20.38;13.10;;;;;;;;;;5103852;28;20052;-72
2024/01/11 04:25:18;;;;;;;19.30;12.63;;;;;;;;;;5054504;28;20124;-72
2024/01/11 04:27:44;;;;;;;20.63;13.38;;;;;;;;;;5088201;28;20071;-72
2024/01/11 04:30:10;;;;;;;21.02;12.88;;;;;;;;;;5093410;28;20081;-72
2024/01/11 04:32:36;;;;;;;17.65;11.90;;;;;;;;;;5081636;28;20045;-72
2024/01/11 04:35:02;;;;;;;18.67;11.95;;;;;;;;;;5089886;28;20504;-71
2024/01/11 04:37:28;;;;;;;19.10;12.27;;;;;;;;;;5058082;28;20032;-72
2024/01/11 04:39:55;;;;;;;19.75;12.43;;;;;;;;;;5082220;28;20044;-72
2024/01/11 04:42:21;;;;;;;18.80;12.85;;;;;;;;;;5058520;28;20111;-71
2024/01/11 04:44:47;;;;;;;21.00;13.40;;;;;;;;;;5073255;28;20492;-72
2024/01/11 04:47:13;;;;;;;17.27;11.82;;;;;;;;;;5083742;28;20047;-72
2024/01/11 04:49:39;;;;;;;19.60;13.20;;;;;;;;;;5074953;28;20123;-72
2024/01/11 04:52:05;;;;;;;19.00;13.13;;;;;;;;;;5053750;28;20043;-72
2024/01/11 04:54:31;;;;;;;17.85;11.55;;;;;;;;;;5064050;28;20117;-72
2024/01/11 04:56:58;;;;;;;17.48;11.65;;;;;;;;;;5086672;28;20043;-72
2024/01/11 04:59:24;;;;;;;19.45;13.07;;;;;;;;;;5054865;28;20037;-72
2024/01/11 05:01:50;;;;;;;19.77;12.75;;;;;;;;;;5071679;28;20090;-78
2024/01/11 05:04:16;;;;;;;18.52;13.10;;;;;;;;;;5055024;28;20040;-77
2024/01/11 05:06:42;;;;;;;19.58;13.48;;;;;;;;;;5071677;28;20036;-78
2024/01/11 05:09:08;;;;;;;19.20;13.57;;;;;;;;;;5071397;28;20045;-78
2024/01/11 05:11:34;;;;;;;18.10;12.82;;;;;;;;;;5071637;28;20052;-78
2024/01/11 05:14:00;;;;;;;20.33;12.93;;;;;;;;;;5055221;28;20131;-78
2024/01/11 05:16:30;;;;;;;17.58;12.40;;;;;;;;;;5054688;28;20048;-78
2024/01/11 05:18:56;;;;;;;19.48;12.88;;;;;;;;;;5071759;28;20036;-73
2024/01/11 05:21:22;;;;;;;20.92;12.45;;;;;;;;;;5071529;28;20037;-72
2024/01/11 05:23:49;;;;;;;19.63;12.70;;;;;;;;;;5071276;28;20403;-72
2024/01/11 05:26:15;;;;;;;20.52;13.38;;;;;;;;;;5037856;28;20387;-72
2024/01/11 05:28:42;;;;;;;18.60;12.20;;;;;;;;;;5054482;28;20375;-72
2024/01/11 05:31:09;;;;;;;19.40;13.25;;;;;;;;;;5053939;28;20043;-72
2024/01/11 05:33:35;;;;;;;18.65;12.80;;;;;;;;;;5071309;28;20396;-72
2024/01/11 05:36:02;;;;;;;17.85;12.13;;;;;;;;;;5038035;28;20040;-72
2024/01/11 05:38:28;;;;;;;22.00;14.85;;;;;;;;;;5081830;28;20044;-72
2024/01/11 05:40:54;;;;;;;18.95;13.40;;;;;;;;;;5054791;28;20787;-71
2024/01/11 05:43:21;;;;;;;21.48;13.70;;;;;;;;;;5078440;28;20036;-71
2024/01/11 05:45:47;;;;;;;21.15;13.77;;;;;;;;;;5071147;28;20079;-71
2024/01/11 05:48:13;;;;;;;21.40;13.55;;;;;;;;;;5058021;28;20125;-72
2024/01/11 05:50:39;;;;;;;21.27;13.27;;;;;;;;;;5081140;28;20051;-70
2024/01/11 05:53:05;;;;;;;19.30;13.35;;;;;;;;;;5085005;28;20044;-72
2024/01/11 05:55:31;;;;;;;20.50;13.35;;;;;;;;;;5054360;28;20045;-72
2024/01/11 05:57:57;;;;;;;19.80;13.27;;;;;;;;;;5078226;28;20525;-72
2024/01/11 06:00:23;;;;;;;22.02;14.68;;;;;;;;;;5074208;28;20067;-72
2024/01/11 06:02:49;;;;;;;20.92;14.02;;;;;;;;;;5055094;28;20480;-71
2024/01/11 06:05:15;;;;;;;21.10;13.80;;;;;;;;;;5070968;28;20032;-71
2024/01/11 06:07:41;;;;;;;19.15;13.10;;;;;;;;;;5054311;28;20052;-72
2024/01/11 06:10:08;;;;;;;23.35;14.55;;;;;;;;;;5078695;28;20036;-72
2024/01/11 06:12:35;;;;;;;22.05;14.38;;;;;;;;;;5072734;28;20049;-74
2024/01/11 06:15:01;;;;;;;21.85;14.15;;;;;;;;;;5071044;28;20040;-72
2024/01/11 06:17:28;;;;;;;23.02;14.50;;;;;;;;;;5072140;28;20040;-73
2024/01/11 06:19:54;;;;;;;20.25;13.10;;;;;;;;;;5071079;28;20032;-72
2024/01/11 06:22:20;;;;;;;20.40;13.13;;;;;;;;;;5071901;28;20032;-72
2024/01/11 06:24:46;;;;;;;18.98;12.88;;;;;;;;;;5088032;28;20070;-72
2024/01/11 06:27:12;;;;;;;19.42;13.63;;;;;;;;;;5074105;28;20070;-72
2024/01/11 06:29:38;;;;;;;20.83;13.75;;;;;;;;;;5075222;28;20079;-72
2024/01/11 06:32:05;;;;;;;18.67;12.95;;;;;;;;;;5077259;28;20045;-72
2024/01/11 06:34:31;;;;;;;21.60;13.13;;;;;;;;;;5058805;28;20539;-72
2024/01/11 06:36:57;;;;;;;21.27;13.10;;;;;;;;;;5074983;28;20044;-73
2024/01/11 06:39:23;;;;;;;18.15;13.18;;;;;;;;;;5062950;28;20166;-72
2024/01/11 06:41:49;;;;;;;20.52;13.40;;;;;;;;;;5075477;28;20481;-72
2024/01/11 06:44:15;;;;;;;18.95;13.05;;;;;;;;;;5075564;28;20041;-72
2024/01/11 06:46:41;;;;;;;21.02;14.07;;;;;;;;;;5065427;28;20147;-72
2024/01/11 06:49:08;;;;;;;19.63;14.52;;;;;;;;;;5057367;28;20095;-73
2024/01/11 06:51:34;;;;;;;18.77;13.25;;;;;;;;;;5074694;28;20078;-73
2024/01/11 06:54:01;;;;;;;21.38;14.05;;;;;;;;;;5060067;28;20036;-73
2024/01/11 06:56:27;;;;;;;19.02;12.80;;;;;;;;;;5059528;28;20120;-72
2024/01/11 06:58:55;;;;;;;19.70;13.48;;;;;;;;;;5073077;28;20056;-72
2024/01/11 07:01:21;;;;;;;20.55;13.73;;;;;;;;;;5059275;28;20045;-72
2024/01/11 07:03:47;;;;;;;20.08;13.13;;;;;;;;;;5063138;28;20071;-73
2024/01/11 07:06:13;;;;;;;22.23;14.23;;;;;;;;;;5073503;28;20036;-73
2024/01/11 07:08:39;;;;;;;19.38;13.45;;;;;;;;;;5081250;28;20036;-73
2024/01/11 07:11:05;;;;;;;20.40;13.63;;;;;;;;;;5077589;28;20466;-73
2024/01/11 07:13:31;;;;;;;24.52;14.23;;;;;;;;;;5075769;28;20046;-73
2024/01/11 07:15:58;;;;;;;20.08;13.63;;;;;;;;;;5076546;28;20127;-73
2024/01/11 07:18:25;;;;;;;22.52;13.27;;;;;;;;;;5081403;28;20081;-73
2024/01/11 07:20:51;;;;;;;20.00;13.70;;;;;;;;;;5077913;28;20036;-73
2024/01/11 07:23:17;;;;;;;22.88;13.20;;;;;;;;;;5077754;28;20036;-72
2024/01/11 07:25:43;;;;;;;20.35;13.15;;;;;;;;;;5086157;28;20115;-72
2024/01/11 07:28:09;;;;;;;19.20;13.15;;;;;;;;;;5079891;28;20495;-72
2024/01/11 07:30:36;;;;;;;19.05;13.63;;;;;;;;;;5073177;28;20145;-72
2024/01/11 07:33:02;;;;;;;20.65;13.32;;;;;;;;;;5072749;28;20037;-72
2024/01/11 07:35:28;;;;;;;18.90;12.32;;;;;;;;;;5072392;28;20033;-72
2024/01/11 07:37:54;;;;;;;20.30;13.25;;;;;;;;;;5056196;28;20028;-71
2024/01/11 07:40:20;;;;;;;19.00;12.85;;;;;;;;;;5066415;28;20041;-73
2024/01/11 07:42:47;;;;;;;20.92;13.32;;;;;;;;;;5075878;28;20079;-71
2024/01/11 07:45:13;;;;;;;19.73;12.02;;;;;;;;;;5073728;28;20111;-72
2024/01/11 07:47:43;;;;;;;20.10;12.77;;;;;;;;;;5059315;28;20097;-72
2024/01/11 07:50:12;;;;;;;16.95;12.20;;;;;;;;;;5056874;28;20036;-72
2024/01/11 07:52:41;;;;;;;18.77;13.00;;;;;;;;;;5091978;28;20040;-71
2024/01/11 07:55:07;;;;;;;16.95;12.32;;;;;;;;;;5067289;28;20097;-72
2024/01/11 07:57:40;;;;;;;23.45;12.63;;;;;;;;;;5059555;28;20044;-72
2024/01/11 08:00:06;;;;;;;17.75;12.23;;;;;;;;;;5072158;28;20117;-72
2024/01/11 08:02:33;;;;;;;17.13;12.40;;;;;;;;;;5080982;28;20047;-72
2024/01/11 08:05:02;;;;;;;17.50;11.85;;;;;;;;;;5077105;28;20044;-72
2024/01/11 08:07:29;;;;;;;15.63;10.98;;;;;;;;;;5062734;28;20496;-70
2024/01/11 08:09:55;;;;;;;16.27;11.98;;;;;;;;;;5073856;28;20059;-72
2024/01/11 08:12:21;;;;;;;18.50;12.02;;;;;;;;;;5061964;28;20052;-72
2024/01/11 08:14:48;;;;;;;21.92;12.02;;;;;;;;;;5054360;28;20493;-72
2024/01/11 08:17:14;;;;;;;17.73;12.20;;;;;;;;;;5072972;28;20036;-72
2024/01/11 08:19:42;;;;;;;16.10;11.68;;;;;;;;;;5073540;28;20500;-71
2024/01/11 08:22:08;;;;;;;17.77;12.15;;;;;;;;;;5074236;28;20047;-72
2024/01/11 08:24:35;;;;;;;15.30;11.57;;;;;;;;;;5093370;28;20438;-72
2024/01/11 08:27:01;;;;;;;16.48;12.13;;;;;;;;;;5074243;28;20391;-73
2024/01/11 08:29:27;;;;;;;18.10;12.38;;;;;;;;;;5073360;28;20101;-73
2024/01/11 08:31:57;;;;;;;18.17;11.30;;;;;;;;;;5063209;28;20040;-71
2024/01/11 08:34:26;;;;;;;19.30;12.32;;;;;;;;;;5082377;28;20048;-74
2024/01/11 08:36:53;;;;;;;18.25;11.82;;;;;;;;;;5080619;28;20569;-73
2024/01/11 08:39:21;;;;;;;16.20;11.88;;;;;;;;;;5080105;28;20100;-74
2024/01/11 08:41:47;;;;;;;17.67;12.02;;;;;;;;;;5087996;28;20040;-75
2024/01/11 08:44:13;;;;;;;18.35;11.68;;;;;;;;;;5092681;28;20096;-74
2024/01/11 08:46:40;;;;;;;16.08;11.07;;;;;;;;;;5092166;28;20123;-74
2024/01/11 08:49:06;;;;;;;15.52;11.38;;;;;;;;;;5056322;28;20044;-74
2024/01/11 08:51:32;;;;;;;16.27;11.20;;;;;;;;;;5075655;28;20040;-74
2024/01/11 08:53:59;;;;;;;14.65;11.18;;;;;;;;;;5076453;28;20493;-73
2024/01/11 08:56:26;;;;;;;19.13;11.77;;;;;;;;;;5075701;28;20036;-74
2024/01/11 08:58:52;;;;;;;14.95;11.02;;;;;;;;;;5085592;28;20040;-74
2024/01/11 09:01:18;;;;;;;18.00;11.63;;;;;;;;;;5072019;28;20548;-73
2024/01/11 09:03:44;;;;;;;17.67;12.23;;;;;;;;;;5056986;28;20122;-74
2024/01/11 09:06:11;;;;;;;17.80;11.90;;;;;;;;;;5055208;28;20036;-73
2024/01/11 09:08:37;;;;;;;15.65;11.35;;;;;;;;;;5073408;28;20040;-74
2024/01/11 09:11:03;;;;;;;16.25;11.55;;;;;;;;;;5055050;28;20480;-74
2024/01/11 09:13:29;;;;;;;14.82;11.20;;;;;;;;;;5055243;28;20040;-80
2024/01/11 09:15:56;;;;;;;15.38;11.32;;;;;;;;;;5071926;28;20041;-81
2024/01/11 09:18:22;;;;;;;16.20;10.85;;;;;;;;;;5071776;28;20181;-80
2024/01/11 09:20:50;;;;;;;16.23;11.70;;;;;;;;;;5055529;28;20037;-80
2024/01/11 09:23:18;;;;;;;19.27;11.75;;;;;;;;;;5071810;28;20499;-80
2024/01/11 09:25:44;;;;;;;15.27;10.55;;;;;;;;;;5054728;28;20063;-80
2024/01/11 09:28:11;;;;;;;16.95;11.38;;;;;;;;;;5055016;28;20044;-81
2024/01/11 09:30:37;;;;;;;14.48;10.80;;;;;;;;;;5071403;28;20040;-74
2024/01/11 09:33:04;;;;;;;16.40;11.50;;;;;;;;;;5054359;28;20119;-79
2024/01/11 09:35:30;;;;;;;17.30;11.18;;;;;;;;;;5071310;28;20098;-81
2024/01/11 09:37:56;;;;;;;16.90;11.75;;;;;;;;;;5054811;28;20480;-80
2024/01/11 09:40:22;;;;;;;17.08;11.23;;;;;;;;;;5071684;28;20052;-81
2024/01/11 09:42:49;;;;;;;18.00;11.57;;;;;;;;;;5055298;28;20044;-81
2024/01/11 09:45:16;;;;;;;17.42;11.32;;;;;;;;;;5055688;28;20082;-81
2024/01/11 09:47:45;;;;;;;14.82;10.68;;;;;;;;;;5055583;28;20389;-81
2024/01/11 09:50:17;;;;;;;14.63;10.70;;;;;;;;;;5074338;28;20098;-81
2024/01/11 09:52:47;;;;;;;14.30;10.85;;;;;;;;;;5077654;28;20043;-80
2024/01/11 09:55:13;;;;;;;17.13;11.50;;;;;;;;;;5096041;28;20047;-80
2024/01/11 09:57:42;;;;;;;15.70;11.60;;;;;;;;;;5082290;28;20111;-81
2024/01/11 10:00:09;;;;;;;14.15;11.02;;;;;;;;;;5097902;28;20052;-81
2024/01/11 10:02:35;;;;;;;15.70;11.40;;;;;;;;;;5080896;28;20053;-80
2024/01/11 10:05:01;;;;;;;15.45;11.32;;;;;;;;;;5068374;28;20033;-80
2024/01/11 10:07:29;;;;;;;16.92;11.35;;;;;;;;;;5089576;28;20044;-72
2024/01/11 10:09:55;;;;;;;19.08;12.35;;;;;;;;;;5058267;28;20072;-73
2024/01/11 10:12:24;;;;;;;17.02;11.02;;;;;;;;;;5074806;28;20051;-73
2024/01/11 10:14:51;;;;;;;16.95;11.88;;;;;;;;;;5074708;28;20044;-73
2024/01/11 10:17:18;;;;;;;15.63;11.13;;;;;;;;;;5058070;28;20044;-73
2024/01/11 10:19:44;;;;;;;17.05;12.10;;;;;;;;;;5074237;28;20036;-73
2024/01/11 10:22:16;;;;;;;15.30;11.73;;;;;;;;;;5081914;28;20032;-72
2024/01/11 10:24:42;;;;;;;17.02;11.65;;;;;;;;;;5088009;28;20094;-72
2024/01/11 10:27:12;;;;;;;15.70;11.57;;;;;;;;;;5083680;28;20040;-81
2024/01/11 10:29:38;;;;;;;16.88;11.43;;;;;;;;;;5075083;28;20131;-82
2024/01/11 10:32:04;;;;;;;17.73;11.85;;;;;;;;;;5077426;28;20497;-81
2024/01/11 10:34:30;;;;;;;16.42;10.65;;;;;;;;;;5061909;28;20040;-81
2024/01/11 10:36:57;;;;;;;18.35;11.38;;;;;;;;;;5075000;28;20420;-81
2024/01/11 10:39:25;;;;;;;17.33;11.13;;;;;;;;;;5057447;28;20036;-77
2024/01/11 10:41:52;;;;;;;14.88;10.73;;;;;;;;;;5080972;28;20032;-78
2024/01/11 10:44:22;;;;;;;16.02;10.35;;;;;;;;;;5070316;28;20051;-79
2024/01/11 10:46:57;;;;;;;16.90;10.88;;;;;;;;;;5073711;28;20088;-80
2024/01/11 10:49:23;;;;;;;14.50;11.07;;;;;;;;;;5086350;28;20036;-80
2024/01/11 10:52:10;;;;;;;17.25;11.73;;;;;;;;;;5082711;28;20145;-80
2024/01/11 10:54:37;;;;;;;16.73;11.20;;;;;;;;;;5074316;28;20044;-80
2024/01/11 10:57:05;;;;;;;16.23;11.18;;;;;;;;;;5083291;28;20068;-80
2024/01/11 10:59:32;;;;;;;15.27;11.27;;;;;;;;;;5078168;28;20574;-80
2024/01/11 11:02:00;;;;;;;15.68;9.95;;;;;;;;;;5080975;28;20430;-80
2024/01/11 11:04:28;;;;;;;14.07;9.75;;;;;;;;;;5077318;28;20181;-80
2024/01/11 11:06:57;;;;;;;15.35;10.43;;;;;;;;;;5059969;28;20048;-80
2024/01/11 11:09:24;;;;;;;13.07;9.98;;;;;;;;;;5073768;28;20044;-80
2024/01/11 11:11:50;;;;;;;14.38;10.00;;;;;;;;;;5063394;28;20071;-80
2024/01/11 11:14:17;;;;;;;14.27;9.98;;;;;;;;;;5067635;28;20072;-80
2024/01/11 11:16:45;;;;;;;15.90;9.88;;;;;;;;;;5065224;28;20484;-80
2024/01/11 11:19:12;;;;;;;15.20;9.82;;;;;;;;;;5084670;28;20043;-80
2024/01/11 11:21:56;;;;;;;16.05;10.38;;;;;;;;;;5072968;28;20028;-80
2024/01/11 11:24:22;;;;;;;15.50;10.02;;;;;;;;;;5079206;28;20058;-80
2024/01/11 11:26:48;;;;;;;26.10;10.40;;;;;;;;;;5065940;28;20047;-80
2024/01/11 11:29:16;;;;;;;15.45;10.02;;;;;;;;;;5078514;28;20048;-80
2024/01/11 11:31:43;;;;;;;13.32;9.15;;;;;;;;;;5071202;28;20101;-80
2024/01/11 11:34:13;;;;;;;15.95;9.68;;;;;;;;;;5071384;28;20040;-80
2024/01/11 11:36:40;;;;;;;14.52;9.45;;;;;;;;;;5075341;28;20086;-80
2024/01/11 11:39:07;;;;;;;14.77;8.65;;;;;;;;;;5068242;28;20365;-80
2024/01/11 11:41:33;;;;;;;14.35;9.02;;;;;;;;;;5086919;28;20036;-81
2024/01/11 11:44:03;;;;;;;13.65;8.60;;;;;;;;;;5054032;28;20388;-81
2024/01/11 11:46:31;;;;;;;14.27;9.15;;;;;;;;;;5089589;28;20031;-80
2024/01/11 11:48:57;;;;;;;13.30;8.70;;;;;;;;;;5080485;28;20125;-81
2024/01/11 11:51:29;;;;;;;12.45;8.25;;;;;;;;;;5091518;28;20042;-80
2024/01/11 11:53:55;;;;;;;13.73;8.38;;;;;;;;;;5067438;28;20504;-81
2024/01/11 11:56:22;;;;;;;12.90;7.68;;;;;;;;;;5060635;28;20040;-79
2024/01/11 11:58:49;;;;;;;12.48;7.65;;;;;;;;;;5065357;28;20037;-80
2024/01/11 12:01:17;;;;;;;12.57;8.18;;;;;;;;;;5070489;28;20052;-79
2024/01/11 12:03:48;;;;;;;10.48;7.03;;;;;;;;;;5077707;28;20037;-80
2024/01/11 12:06:15;;;;;;;16.38;7.75;;;;;;;;;;5088836;28;21184;-80
2024/01/11 12:08:42;;;;;;;15.43;7.00;;;;;;;;;;5060349;28;20541;-80
2024/01/11 12:11:09;;;;;;;11.52;6.30;;;;;;;;;;5078968;28;21325;-80
2024/01/11 12:13:35;;;;;;;8.73;5.65;;;;;;;;;;5070251;28;20059;-80
2024/01/11 12:16:02;;;;;;;9.32;6.15;;;;;;;;;;5088555;28;20044;-80
2024/01/11 12:18:28;;;;;;;14.18;5.43;;;;;;;;;;5070238;28;20040;-80
2024/01/11 12:20:54;;;;;;;13.85;4.70;;;;;;;;;;5069412;28;20043;-79
2024/01/11 12:23:20;;;;;;;15.50;4.88;;;;;;;;;;5088776;28;20507;-79
2024/01/11 12:25:46;;;;;;;14.10;4.88;;;;;;;;;;5072667;28;20568;-79
2024/01/11 12:28:13;;;;;;;11.73;4.35;;;;;;;;;;5078936;28;20473;-80
2024/01/11 12:30:39;;;;;;;14.18;4.55;;;;;;;;;;5087469;28;20023;-80
2024/01/11 12:33:05;;;;;;;13.70;4.30;;;;;;;;;;5075473;28;20040;-80
2024/01/11 12:35:32;;;;;;;29.13;5.32;;;;;;;;;;5072503;28;20027;-80
2024/01/11 12:38:10;;;;;;;17.33;4.90;;;;;;;;;;5089001;28;20060;-80
2024/01/11 12:40:37;;;;;;;13.77;4.28;;;;;;;;;;5090466;28;20093;-79
2024/01/11 12:43:04;;;;;;;16.58;4.10;;;;;;;;;;5070863;28;20027;-81
2024/01/11 12:45:32;;;;;;;16.17;3.50;;;;;;;;;;5060933;28;20135;-80
2024/01/11 12:47:59;;;;;;;18.83;4.15;;;;;;;;;;5074326;28;20116;-79
2024/01/11 12:50:27;;;;;;;12.18;4.78;;;;;;;;;;5067107;28;20134;-80
2024/01/11 12:53:17;;;;;;;18.17;4.68;;;;;;;;;;5083246;28;20137;-80
2024/01/11 12:55:43;;;;;;;16.52;4.78;;;;;;;;;;5067159;28;20400;-79
2024/01/11 12:58:10;;;;;;;22.02;4.57;;;;;;;;;;5068270;28;20499;-79
2024/01/11 13:00:37;;;;;;;17.75;4.05;;;;;;;;;;5077081;28;20055;-80
2024/01/11 13:03:03;;;;;;;17.92;4.60;;;;;;;;;;5065503;28;20407;-80
2024/01/11 13:05:34;;;;;;;15.40;4.10;;;;;;;;;;5079619;28;20384;-80
2024/01/11 13:08:02;;;;;;;21.20;4.00;;;;;;;;;;5074036;28;20048;-79
2024/01/11 13:10:29;;;;;;;23.83;3.92;;;;;;;;;;5078872;28;20365;-79
2024/01/11 13:12:55;;;;;;;20.27;4.18;;;;;;;;;;5090105;28;20086;-79
2024/01/11 13:15:21;;;;;;;22.83;4.20;;;;;;;;;;5057487;28;20450;-79
2024/01/11 13:17:48;;;;;;;20.13;4.72;;;;;;;;;;5071518;28;20130;-80
2024/01/11 13:20:15;;;;;;;18.85;4.10;;;;;;;;;;5061575;28;20059;-79
2024/01/11 13:22:41;;;;;;;22.48;4.00;;;;;;;;;;5078789;28;20066;-79
2024/01/11 13:25:07;;;;;;;21.73;3.92;;;;;;;;;;5079521;28;20115;-79
2024/01/11 13:27:33;;;;;;;27.58;4.00;;;;;;;;;;5062079;28;20040;-80
2024/01/11 13:29:59;;;;;;;23.65;4.30;;;;;;;;;;5060641;28;20032;-79
2024/01/11 13:32:25;;;;;;;27.17;4.70;;;;;;;;;;5062490;28;20159;-79
2024/01/11 13:34:54;;;;;;;25.02;3.85;;;;;;;;;;5083084;28;20353;-80
2024/01/11 13:37:20;;;;;;;34.85;4.80;;;;;;;;;;5058231;28;20029;-79
2024/01/11 13:39:48;;;;;;;23.42;4.32;;;;;;;;;;5089838;28;20048;-79
2024/01/11 13:42:14;;;;;;;27.67;4.30;;;;;;;;;;5087757;28;20036;-80
2024/01/11 13:44:42;;;;;;;26.83;4.40;;;;;;;;;;5087245;28;20425;-80
2024/01/11 13:47:08;;;;;;;26.73;4.63;;;;;;;;;;5075843;28;20174;-79
2024/01/11 13:49:34;;;;;;;29.45;4.70;;;;;;;;;;5070914;28;20371;-80
2024/01/11 13:52:00;;;;;;;26.27;5.05;;;;;;;;;;5043486;28;20047;-79
2024/01/11 13:54:27;;;;;;;23.48;4.18;;;;;;;;;;5073966;28;20040;-79
2024/01/11 13:56:53;;;;;;;34.47;4.30;;;;;;;;;;5088279;28;20435;-79
2024/01/11 13:59:19;;;;;;;27.55;4.47;;;;;;;;;;5075817;28;20067;-79
2024/01/11 14:01:45;;;;;;;25.52;4.38;;;;;;;;;;5082378;28;20101;-80
2024/01/11 14:04:11;;;;;;;31.75;5.53;;;;;;;;;;5068900;28;20490;-78
2024/01/11 14:06:38;;;;;;;37.67;5.85;;;;;;;;;;5063373;28;20044;-79
2024/01/11 14:09:07;;;;;;;39.67;5.00;;;;;;;;;;5045571;28;20047;-78
2024/01/11 14:11:33;;;;;;;35.90;5.25;;;;;;;;;;5065464;28;20032;-79
2024/01/11 14:13:59;;;;;;;27.52;4.75;;;;;;;;;;5088948;28;20094;-79
2024/01/11 14:16:25;;;;;;;26.85;4.30;;;;;;;;;;5082411;28;20036;-78
2024/01/11 14:18:51;;;;;;;34.03;5.43;;;;;;;;;;5071979;28;20032;-73